sensor_id;sensor_type;location;lat;lon;timestamp;P1;durP1;ratioP1;P2;durP2;ratioP2
62673;SDS011;62269;47.594;17.638;2023-02-28T00:00:18;29.58;;;22.42;;
62673;SDS011;62269;47.594;17.638;2023-02-28T00:01:06;30.40;;;21.10;;
62673;SDS011;62269;47.594;17.638;2023-02-28T00:01:53;27.65;;;21.50;;
62673;SDS011;62269;47.594;17.638;2023-02-28T00:02:41;31.95;;;22.75;;
62673;SDS011;62269;47.594;17.638;2023-02-28T00:03:28;26.15;;;20.10;;
62673;SDS011;62269;47.594;17.638;2023-02-28T00:04:15;24.55;;;19.27;;
62673;SDS011;62269;47.594;17.638;2023-02-28T00:05:02;27.08;;;18.48;;
62673;SDS011;62269;47.594;17.638;2023-02-28T00:05:49;23.15;;;16.73;;
62673;SDS011;62269;47.594;17.638;2023-02-28T00:06:36;19.65;;;16.02;;
62673;SDS011;62269;47.594;17.638;2023-02-28T00:07:24;21.58;;;17.15;;
62673;SDS011;62269;47.594;17.638;2023-02-28T00:08:10;21.45;;;16.02;;
62673;SDS011;62269;47.594;17.638;2023-02-28T00:08:58;20.55;;;16.33;;
62673;SDS011;62269;47.594;17.638;2023-02-28T00:09:44;18.12;;;15.88;;
62673;SDS011;62269;47.594;17.638;2023-02-28T00:10:31;25.95;;;16.98;;
62673;SDS011;62269;47.594;17.638;2023-02-28T00:11:18;22.02;;;15.77;;
62673;SDS011;62269;47.594;17.638;2023-02-28T00:12:05;22.77;;;15.38;;
62673;SDS011;62269;47.594;17.638;2023-02-28T00:13:03;17.98;;;14.63;;
62673;SDS011;62269;47.594;17.638;2023-02-28T00:13:52;17.85;;;14.68;;
62673;SDS011;62269;47.594;17.638;2023-02-28T00:14:39;19.48;;;14.77;;
62673;SDS011;62269;47.594;17.638;2023-02-28T00:15:26;19.05;;;14.73;;
62673;SDS011;62269;47.594;17.638;2023-02-28T00:16:15;20.48;;;14.87;;
62673;SDS011;62269;47.594;17.638;2023-02-28T00:17:03;20.20;;;15.15;;
62673;SDS011;62269;47.594;17.638;2023-02-28T00:17:50;20.65;;;14.45;;
62673;SDS011;62269;47.594;17.638;2023-02-28T00:18:37;21.60;;;13.82;;
62673;SDS011;62269;47.594;17.638;2023-02-28T00:19:24;18.23;;;14.43;;
62673;SDS011;62269;47.594;17.638;2023-02-28T00:20:11;18.20;;;13.48;;
62673;SDS011;62269;47.594;17.638;2023-02-28T00:20:59;19.67;;;13.48;;
62673;SDS011;62269;47.594;17.638;2023-02-28T00:21:46;19.65;;;13.95;;
62673;SDS011;62269;47.594;17.638;2023-02-28T00:22:33;19.67;;;14.70;;
62673;SDS011;62269;47.594;17.638;2023-02-28T00:23:20;17.20;;;13.30;;
62673;SDS011;62269;47.594;17.638;2023-02-28T00:24:07;19.58;;;13.90;;
62673;SDS011;62269;47.594;17.638;2023-02-28T00:24:54;18.25;;;14.30;;
62673;SDS011;62269;47.594;17.638;2023-02-28T00:25:41;19.60;;;13.62;;
62673;SDS011;62269;47.594;17.638;2023-02-28T00:26:28;16.45;;;13.00;;
62673;SDS011;62269;47.594;17.638;2023-02-28T00:27:15;18.08;;;14.10;;
62673;SDS011;62269;47.594;17.638;2023-02-28T00:28:02;17.20;;;13.13;;
62673;SDS011;62269;47.594;17.638;2023-02-28T00:28:51;17.60;;;12.68;;
62673;SDS011;62269;47.594;17.638;2023-02-28T00:29:39;17.80;;;14.38;;
62673;SDS011;62269;47.594;17.638;2023-02-28T00:30:26;19.35;;;13.93;;
62673;SDS011;62269;47.594;17.638;2023-02-28T00:31:13;22.25;;;15.32;;
62673;SDS011;62269;47.594;17.638;2023-02-28T00:32:00;17.80;;;13.45;;
62673;SDS011;62269;47.594;17.638;2023-02-28T00:32:47;17.15;;;13.43;;
62673;SDS011;62269;47.594;17.638;2023-02-28T00:33:35;17.52;;;13.60;;
62673;SDS011;62269;47.594;17.638;2023-02-28T00:34:22;22.90;;;13.62;;
62673;SDS011;62269;47.594;17.638;2023-02-28T00:35:09;17.30;;;13.62;;
62673;SDS011;62269;47.594;17.638;2023-02-28T00:36:07;18.87;;;13.68;;
62673;SDS011;62269;47.594;17.638;2023-02-28T00:36:55;18.65;;;13.45;;
62673;SDS011;62269;47.594;17.638;2023-02-28T00:37:42;18.40;;;14.20;;
62673;SDS011;62269;47.594;17.638;2023-02-28T00:38:29;20.08;;;13.68;;
62673;SDS011;62269;47.594;17.638;2023-02-28T00:39:16;16.87;;;13.65;;
62673;SDS011;62269;47.594;17.638;2023-02-28T00:40:03;18.45;;;12.93;;
62673;SDS011;62269;47.594;17.638;2023-02-28T00:40:52;15.20;;;12.00;;
62673;SDS011;62269;47.594;17.638;2023-02-28T00:41:39;17.05;;;13.13;;
62673;SDS011;62269;47.594;17.638;2023-02-28T00:42:26;16.80;;;12.68;;
62673;SDS011;62269;47.594;17.638;2023-02-28T00:43:13;18.05;;;13.32;;
62673;SDS011;62269;47.594;17.638;2023-02-28T00:44:00;16.58;;;12.98;;
62673;SDS011;62269;47.594;17.638;2023-02-28T00:44:47;17.02;;;13.25;;
62673;SDS011;62269;47.594;17.638;2023-02-28T00:45:34;16.65;;;13.60;;
62673;SDS011;62269;47.594;17.638;2023-02-28T00:46:21;16.60;;;13.38;;
62673;SDS011;62269;47.594;17.638;2023-02-28T00:47:08;16.58;;;13.23;;
62673;SDS011;62269;47.594;17.638;2023-02-28T00:47:55;17.20;;;13.32;;
62673;SDS011;62269;47.594;17.638;2023-02-28T00:48:42;19.85;;;12.77;;
62673;SDS011;62269;47.594;17.638;2023-02-28T00:49:29;16.40;;;12.35;;
62673;SDS011;62269;47.594;17.638;2023-02-28T00:50:17;18.23;;;12.63;;
62673;SDS011;62269;47.594;17.638;2023-02-28T00:51:05;18.27;;;13.48;;
62673;SDS011;62269;47.594;17.638;2023-02-28T00:51:52;19.73;;;14.40;;
62673;SDS011;62269;47.594;17.638;2023-02-28T00:52:40;16.95;;;12.37;;
62673;SDS011;62269;47.594;17.638;2023-02-28T00:53:27;15.30;;;11.75;;
62673;SDS011;62269;47.594;17.638;2023-02-28T00:54:15;17.12;;;13.25;;
62673;SDS011;62269;47.594;17.638;2023-02-28T00:55:02;17.92;;;12.77;;
62673;SDS011;62269;47.594;17.638;2023-02-28T00:55:50;15.63;;;12.88;;
62673;SDS011;62269;47.594;17.638;2023-02-28T00:56:37;17.17;;;13.15;;
62673;SDS011;62269;47.594;17.638;2023-02-28T00:57:24;14.65;;;11.80;;
62673;SDS011;62269;47.594;17.638;2023-02-28T00:58:11;19.12;;;12.95;;
62673;SDS011;62269;47.594;17.638;2023-02-28T00:58:58;18.25;;;13.27;;
62673;SDS011;62269;47.594;17.638;2023-02-28T00:59:45;17.05;;;12.88;;
62673;SDS011;62269;47.594;17.638;2023-02-28T01:00:32;17.92;;;12.35;;
62673;SDS011;62269;47.594;17.638;2023-02-28T01:01:19;14.18;;;12.18;;
62673;SDS011;62269;47.594;17.638;2023-02-28T01:02:05;14.52;;;11.45;;
62673;SDS011;62269;47.594;17.638;2023-02-28T01:02:53;16.23;;;12.00;;
62673;SDS011;62269;47.594;17.638;2023-02-28T01:03:39;15.65;;;11.68;;
62673;SDS011;62269;47.594;17.638;2023-02-28T01:04:26;16.12;;;12.00;;
62673;SDS011;62269;47.594;17.638;2023-02-28T01:05:13;19.00;;;13.13;;
62673;SDS011;62269;47.594;17.638;2023-02-28T01:06:00;18.05;;;13.00;;
62673;SDS011;62269;47.594;17.638;2023-02-28T01:06:47;18.55;;;12.00;;
62673;SDS011;62269;47.594;17.638;2023-02-28T01:07:34;18.27;;;12.63;;
62673;SDS011;62269;47.594;17.638;2023-02-28T01:08:21;16.02;;;13.02;;
62673;SDS011;62269;47.594;17.638;2023-02-28T01:09:09;15.70;;;12.50;;
62673;SDS011;62269;47.594;17.638;2023-02-28T01:09:56;17.60;;;12.10;;
62673;SDS011;62269;47.594;17.638;2023-02-28T01:10:43;18.40;;;12.13;;
62673;SDS011;62269;47.594;17.638;2023-02-28T01:11:30;18.77;;;12.25;;
62673;SDS011;62269;47.594;17.638;2023-02-28T01:12:17;17.70;;;11.30;;
62673;SDS011;62269;47.594;17.638;2023-02-28T01:13:04;14.70;;;12.20;;
62673;SDS011;62269;47.594;17.638;2023-02-28T01:13:51;14.45;;;11.90;;
62673;SDS011;62269;47.594;17.638;2023-02-28T01:14:38;15.00;;;11.98;;
62673;SDS011;62269;47.594;17.638;2023-02-28T01:15:25;16.65;;;11.73;;
62673;SDS011;62269;47.594;17.638;2023-02-28T01:16:12;17.00;;;12.23;;
62673;SDS011;62269;47.594;17.638;2023-02-28T01:16:59;14.50;;;11.10;;
62673;SDS011;62269;47.594;17.638;2023-02-28T01:17:46;15.35;;;12.30;;
62673;SDS011;62269;47.594;17.638;2023-02-28T01:18:33;14.93;;;10.57;;
62673;SDS011;62269;47.594;17.638;2023-02-28T01:19:20;15.05;;;11.98;;
62673;SDS011;62269;47.594;17.638;2023-02-28T01:20:08;13.70;;;11.55;;
62673;SDS011;62269;47.594;17.638;2023-02-28T01:20:56;15.23;;;11.77;;
62673;SDS011;62269;47.594;17.638;2023-02-28T01:21:43;15.00;;;11.70;;
62673;SDS011;62269;47.594;17.638;2023-02-28T01:22:29;16.85;;;11.10;;
62673;SDS011;62269;47.594;17.638;2023-02-28T01:23:16;19.58;;;12.90;;
62673;SDS011;62269;47.594;17.638;2023-02-28T01:24:03;17.17;;;12.23;;
62673;SDS011;62269;47.594;17.638;2023-02-28T01:24:51;16.30;;;12.77;;
62673;SDS011;62269;47.594;17.638;2023-02-28T01:25:39;14.65;;;12.10;;
62673;SDS011;62269;47.594;17.638;2023-02-28T01:26:26;15.57;;;12.00;;
62673;SDS011;62269;47.594;17.638;2023-02-28T01:27:13;14.20;;;12.07;;
62673;SDS011;62269;47.594;17.638;2023-02-28T01:28:00;15.98;;;11.73;;
62673;SDS011;62269;47.594;17.638;2023-02-28T01:28:47;14.18;;;12.18;;
62673;SDS011;62269;47.594;17.638;2023-02-28T01:29:35;16.83;;;11.68;;
62673;SDS011;62269;47.594;17.638;2023-02-28T01:30:22;14.87;;;11.57;;
62673;SDS011;62269;47.594;17.638;2023-02-28T01:31:09;17.58;;;12.55;;
62673;SDS011;62269;47.594;17.638;2023-02-28T01:31:56;15.57;;;11.85;;
62673;SDS011;62269;47.594;17.638;2023-02-28T01:32:45;16.55;;;12.00;;
62673;SDS011;62269;47.594;17.638;2023-02-28T01:33:33;17.15;;;12.20;;
62673;SDS011;62269;47.594;17.638;2023-02-28T01:34:20;16.92;;;12.70;;
62673;SDS011;62269;47.594;17.638;2023-02-28T01:35:07;14.80;;;11.68;;
62673;SDS011;62269;47.594;17.638;2023-02-28T01:35:57;14.00;;;11.02;;
62673;SDS011;62269;47.594;17.638;2023-02-28T01:36:47;16.15;;;12.43;;
62673;SDS011;62269;47.594;17.638;2023-02-28T01:37:34;17.80;;;13.23;;
62673;SDS011;62269;47.594;17.638;2023-02-28T01:38:21;16.30;;;11.88;;
62673;SDS011;62269;47.594;17.638;2023-02-28T01:39:08;15.93;;;11.90;;
62673;SDS011;62269;47.594;17.638;2023-02-28T01:39:55;16.83;;;12.60;;
62673;SDS011;62269;47.594;17.638;2023-02-28T01:40:42;18.92;;;13.75;;
62673;SDS011;62269;47.594;17.638;2023-02-28T01:41:30;14.65;;;12.18;;
62673;SDS011;62269;47.594;17.638;2023-02-28T01:42:18;17.92;;;11.85;;
62673;SDS011;62269;47.594;17.638;2023-02-28T01:45:35;13.57;;;11.12;;
62673;SDS011;62269;47.594;17.638;2023-02-28T01:46:22;16.27;;;11.63;;
62673;SDS011;62269;47.594;17.638;2023-02-28T01:47:09;13.90;;;11.25;;
62673;SDS011;62269;47.594;17.638;2023-02-28T01:48:00;18.35;;;12.57;;
62673;SDS011;62269;47.594;17.638;2023-02-28T01:50:16;15.07;;;10.43;;
62673;SDS011;62269;47.594;17.638;2023-02-28T01:51:11;16.77;;;12.15;;
62673;SDS011;62269;47.594;17.638;2023-02-28T01:52:00;18.10;;;12.50;;
62673;SDS011;62269;47.594;17.638;2023-02-28T01:52:47;17.10;;;12.18;;
62673;SDS011;62269;47.594;17.638;2023-02-28T01:53:37;15.55;;;11.90;;
62673;SDS011;62269;47.594;17.638;2023-02-28T01:54:27;15.75;;;12.40;;
62673;SDS011;62269;47.594;17.638;2023-02-28T01:55:16;17.27;;;13.13;;
62673;SDS011;62269;47.594;17.638;2023-02-28T01:56:05;15.82;;;12.52;;
62673;SDS011;62269;47.594;17.638;2023-02-28T01:56:54;17.42;;;12.75;;
62673;SDS011;62269;47.594;17.638;2023-02-28T01:57:48;15.88;;;12.20;;
62673;SDS011;62269;47.594;17.638;2023-02-28T01:58:37;16.52;;;11.48;;
62673;SDS011;62269;47.594;17.638;2023-02-28T01:59:43;17.30;;;12.05;;
62673;SDS011;62269;47.594;17.638;2023-02-28T02:00:35;16.80;;;13.10;;
62673;SDS011;62269;47.594;17.638;2023-02-28T02:01:22;15.60;;;12.10;;
62673;SDS011;62269;47.594;17.638;2023-02-28T02:02:10;17.73;;;12.80;;
62673;SDS011;62269;47.594;17.638;2023-02-28T02:02:58;16.12;;;12.43;;
62673;SDS011;62269;47.594;17.638;2023-02-28T02:03:50;17.98;;;12.27;;
62673;SDS011;62269;47.594;17.638;2023-02-28T02:04:43;16.40;;;12.32;;
62673;SDS011;62269;47.594;17.638;2023-02-28T02:05:37;16.35;;;12.73;;
62673;SDS011;62269;47.594;17.638;2023-02-28T02:06:27;18.23;;;12.98;;
62673;SDS011;62269;47.594;17.638;2023-02-28T02:07:21;18.80;;;12.15;;
62673;SDS011;62269;47.594;17.638;2023-02-28T02:08:10;17.12;;;13.05;;
62673;SDS011;62269;47.594;17.638;2023-02-28T02:08:58;18.48;;;13.00;;
62673;SDS011;62269;47.594;17.638;2023-02-28T02:09:45;15.05;;;11.43;;
62673;SDS011;62269;47.594;17.638;2023-02-28T02:10:45;16.85;;;12.75;;
62673;SDS011;62269;47.594;17.638;2023-02-28T02:11:37;15.65;;;11.93;;
62673;SDS011;62269;47.594;17.638;2023-02-28T02:12:49;15.57;;;12.13;;
62673;SDS011;62269;47.594;17.638;2023-02-28T02:14:01;17.17;;;10.85;;
62673;SDS011;62269;47.594;17.638;2023-02-28T02:15:14;14.87;;;11.30;;
62673;SDS011;62269;47.594;17.638;2023-02-28T02:16:10;15.05;;;11.35;;
62673;SDS011;62269;47.594;17.638;2023-02-28T02:17:56;18.15;;;12.10;;
62673;SDS011;62269;47.594;17.638;2023-02-28T02:28:56;18.25;;;11.88;;
62673;SDS011;62269;47.594;17.638;2023-02-28T02:33:44;14.32;;;10.45;;
62673;SDS011;62269;47.594;17.638;2023-02-28T02:36:38;14.32;;;11.12;;
62673;SDS011;62269;47.594;17.638;2023-02-28T02:39:06;17.42;;;11.80;;
62673;SDS011;62269;47.594;17.638;2023-02-28T02:41:08;15.93;;;10.85;;
62673;SDS011;62269;47.594;17.638;2023-02-28T02:42:16;14.85;;;11.20;;
62673;SDS011;62269;47.594;17.638;2023-02-28T02:43:24;14.55;;;11.02;;
62673;SDS011;62269;47.594;17.638;2023-02-28T02:44:34;17.05;;;10.75;;
62673;SDS011;62269;47.594;17.638;2023-02-28T02:45:32;15.73;;;10.38;;
62673;SDS011;62269;47.594;17.638;2023-02-28T02:46:34;15.13;;;10.68;;
62673;SDS011;62269;47.594;17.638;2023-02-28T02:47:24;17.90;;;11.32;;
62673;SDS011;62269;47.594;17.638;2023-02-28T02:48:16;12.57;;;10.82;;
62673;SDS011;62269;47.594;17.638;2023-02-28T02:49:05;16.35;;;11.55;;
62673;SDS011;62269;47.594;17.638;2023-02-28T02:49:56;14.40;;;11.35;;
62673;SDS011;62269;47.594;17.638;2023-02-28T02:50:45;16.95;;;11.05;;
62673;SDS011;62269;47.594;17.638;2023-02-28T02:51:35;14.43;;;11.12;;
62673;SDS011;62269;47.594;17.638;2023-02-28T02:52:25;14.75;;;11.20;;
62673;SDS011;62269;47.594;17.638;2023-02-28T02:53:26;17.58;;;11.55;;
62673;SDS011;62269;47.594;17.638;2023-02-28T02:55:04;14.38;;;11.27;;
62673;SDS011;62269;47.594;17.638;2023-02-28T02:55:53;17.00;;;12.73;;
62673;SDS011;62269;47.594;17.638;2023-02-28T02:56:41;14.98;;;11.95;;
62673;SDS011;62269;47.594;17.638;2023-02-28T02:57:32;16.02;;;11.65;;
62673;SDS011;62269;47.594;17.638;2023-02-28T02:58:24;14.65;;;11.20;;
62673;SDS011;62269;47.594;17.638;2023-02-28T02:59:15;13.50;;;11.27;;
62673;SDS011;62269;47.594;17.638;2023-02-28T03:00:10;14.98;;;11.50;;
62673;SDS011;62269;47.594;17.638;2023-02-28T03:01:00;14.50;;;11.82;;
62673;SDS011;62269;47.594;17.638;2023-02-28T03:01:53;15.98;;;11.63;;
62673;SDS011;62269;47.594;17.638;2023-02-28T03:02:42;15.43;;;11.68;;
62673;SDS011;62269;47.594;17.638;2023-02-28T03:03:31;17.67;;;12.30;;
62673;SDS011;62269;47.594;17.638;2023-02-28T03:04:20;16.92;;;12.00;;
62673;SDS011;62269;47.594;17.638;2023-02-28T03:05:13;15.45;;;11.52;;
62673;SDS011;62269;47.594;17.638;2023-02-28T03:06:04;15.02;;;11.10;;
62673;SDS011;62269;47.594;17.638;2023-02-28T03:06:52;14.87;;;11.27;;
62673;SDS011;62269;47.594;17.638;2023-02-28T03:07:42;15.43;;;11.05;;
62673;SDS011;62269;47.594;17.638;2023-02-28T03:08:29;14.25;;;11.38;;
62673;SDS011;62269;47.594;17.638;2023-02-28T03:09:21;13.23;;;11.02;;
62673;SDS011;62269;47.594;17.638;2023-02-28T03:11:16;16.80;;;11.63;;
62673;SDS011;62269;47.594;17.638;2023-02-28T03:12:03;15.57;;;12.27;;
62673;SDS011;62269;47.594;17.638;2023-02-28T03:12:53;13.80;;;11.50;;
62673;SDS011;62269;47.594;17.638;2023-02-28T03:15:36;14.15;;;10.50;;
62673;SDS011;62269;47.594;17.638;2023-02-28T03:17:49;15.13;;;11.00;;
62673;SDS011;62269;47.594;17.638;2023-02-28T03:18:53;14.15;;;10.73;;
62673;SDS011;62269;47.594;17.638;2023-02-28T03:20:11;15.98;;;11.55;;
62673;SDS011;62269;47.594;17.638;2023-02-28T03:23:01;15.68;;;12.05;;
62673;SDS011;62269;47.594;17.638;2023-02-28T03:23:59;15.00;;;11.12;;
62673;SDS011;62269;47.594;17.638;2023-02-28T03:25:11;15.60;;;11.43;;
62673;SDS011;62269;47.594;17.638;2023-02-28T03:26:11;15.38;;;11.43;;
62673;SDS011;62269;47.594;17.638;2023-02-28T03:27:16;16.33;;;12.50;;
62673;SDS011;62269;47.594;17.638;2023-02-28T03:30:49;15.80;;;12.40;;
62673;SDS011;62269;47.594;17.638;2023-02-28T03:31:43;14.77;;;12.02;;
62673;SDS011;62269;47.594;17.638;2023-02-28T03:32:36;14.98;;;12.00;;
62673;SDS011;62269;47.594;17.638;2023-02-28T03:33:32;16.00;;;12.35;;
62673;SDS011;62269;47.594;17.638;2023-02-28T03:34:42;15.25;;;11.88;;
62673;SDS011;62269;47.594;17.638;2023-02-28T03:36:29;18.40;;;12.20;;
62673;SDS011;62269;47.594;17.638;2023-02-28T03:37:19;15.88;;;11.80;;
62673;SDS011;62269;47.594;17.638;2023-02-28T03:38:13;17.58;;;12.25;;
62673;SDS011;62269;47.594;17.638;2023-02-28T03:39:05;16.45;;;11.95;;
62673;SDS011;62269;47.594;17.638;2023-02-28T03:39:58;17.60;;;12.48;;
62673;SDS011;62269;47.594;17.638;2023-02-28T03:40:48;15.77;;;12.45;;
62673;SDS011;62269;47.594;17.638;2023-02-28T03:41:40;18.30;;;11.93;;
62673;SDS011;62269;47.594;17.638;2023-02-28T03:42:31;15.18;;;11.45;;
62673;SDS011;62269;47.594;17.638;2023-02-28T03:43:24;16.87;;;12.88;;
62673;SDS011;62269;47.594;17.638;2023-02-28T03:44:21;16.00;;;12.80;;
62673;SDS011;62269;47.594;17.638;2023-02-28T03:46:08;18.42;;;12.57;;
62673;SDS011;62269;47.594;17.638;2023-02-28T03:47:47;14.98;;;11.20;;
62673;SDS011;62269;47.594;17.638;2023-02-28T03:49:06;15.95;;;12.18;;
62673;SDS011;62269;47.594;17.638;2023-02-28T03:50:54;15.90;;;11.82;;
62673;SDS011;62269;47.594;17.638;2023-02-28T03:51:42;15.90;;;12.65;;
62673;SDS011;62269;47.594;17.638;2023-02-28T03:52:34;15.65;;;11.95;;
62673;SDS011;62269;47.594;17.638;2023-02-28T03:54:13;13.43;;;10.98;;
62673;SDS011;62269;47.594;17.638;2023-02-28T03:55:59;17.73;;;11.38;;
62673;SDS011;62269;47.594;17.638;2023-02-28T03:58:22;15.48;;;11.88;;
62673;SDS011;62269;47.594;17.638;2023-02-28T03:59:18;14.90;;;10.70;;
62673;SDS011;62269;47.594;17.638;2023-02-28T04:00:12;15.82;;;11.88;;
62673;SDS011;62269;47.594;17.638;2023-02-28T04:01:22;15.93;;;11.10;;
62673;SDS011;62269;47.594;17.638;2023-02-28T04:02:13;15.90;;;12.95;;
62673;SDS011;62269;47.594;17.638;2023-02-28T04:03:00;16.17;;;12.57;;
62673;SDS011;62269;47.594;17.638;2023-02-28T04:03:47;16.87;;;11.90;;
62673;SDS011;62269;47.594;17.638;2023-02-28T04:04:34;18.15;;;12.57;;
62673;SDS011;62269;47.594;17.638;2023-02-28T04:05:22;15.70;;;11.40;;
62673;SDS011;62269;47.594;17.638;2023-02-28T04:06:13;16.55;;;12.10;;
62673;SDS011;62269;47.594;17.638;2023-02-28T04:07:06;16.30;;;11.77;;
62673;SDS011;62269;47.594;17.638;2023-02-28T04:08:02;14.70;;;11.15;;
62673;SDS011;62269;47.594;17.638;2023-02-28T04:08:51;15.73;;;11.55;;
62673;SDS011;62269;47.594;17.638;2023-02-28T04:09:38;15.32;;;12.27;;
62673;SDS011;62269;47.594;17.638;2023-02-28T04:10:25;15.70;;;11.32;;
62673;SDS011;62269;47.594;17.638;2023-02-28T04:12:17;14.57;;;11.35;;
62673;SDS011;62269;47.594;17.638;2023-02-28T04:13:04;17.42;;;11.60;;
62673;SDS011;62269;47.594;17.638;2023-02-28T04:13:51;15.65;;;12.73;;
62673;SDS011;62269;47.594;17.638;2023-02-28T04:14:38;16.55;;;11.12;;
62673;SDS011;62269;47.594;17.638;2023-02-28T04:15:25;13.88;;;10.50;;
62673;SDS011;62269;47.594;17.638;2023-02-28T04:16:13;16.25;;;12.98;;
62673;SDS011;62269;47.594;17.638;2023-02-28T04:17:19;17.90;;;11.90;;
62673;SDS011;62269;47.594;17.638;2023-02-28T04:18:06;16.65;;;10.88;;
62673;SDS011;62269;47.594;17.638;2023-02-28T04:18:54;13.98;;;11.02;;
62673;SDS011;62269;47.594;17.638;2023-02-28T04:19:48;15.90;;;11.52;;
62673;SDS011;62269;47.594;17.638;2023-02-28T04:20:36;15.05;;;11.70;;
62673;SDS011;62269;47.594;17.638;2023-02-28T04:21:23;15.60;;;11.48;;
62673;SDS011;62269;47.594;17.638;2023-02-28T04:22:13;14.55;;;11.77;;
62673;SDS011;62269;47.594;17.638;2023-02-28T04:23:00;15.05;;;11.07;;
62673;SDS011;62269;47.594;17.638;2023-02-28T04:23:47;15.95;;;11.50;;
62673;SDS011;62269;47.594;17.638;2023-02-28T04:24:34;15.30;;;11.68;;
62673;SDS011;62269;47.594;17.638;2023-02-28T04:25:21;13.93;;;11.23;;
62673;SDS011;62269;47.594;17.638;2023-02-28T04:26:08;14.23;;;11.23;;
62673;SDS011;62269;47.594;17.638;2023-02-28T04:26:56;12.75;;;10.77;;
62673;SDS011;62269;47.594;17.638;2023-02-28T04:27:44;14.63;;;11.73;;
62673;SDS011;62269;47.594;17.638;2023-02-28T04:28:31;15.48;;;10.80;;
62673;SDS011;62269;47.594;17.638;2023-02-28T04:29:20;14.30;;;11.10;;
62673;SDS011;62269;47.594;17.638;2023-02-28T04:30:15;13.40;;;11.25;;
62673;SDS011;62269;47.594;17.638;2023-02-28T04:31:02;13.73;;;11.63;;
62673;SDS011;62269;47.594;17.638;2023-02-28T04:31:51;14.38;;;11.25;;
62673;SDS011;62269;47.594;17.638;2023-02-28T04:32:40;14.70;;;11.68;;
62673;SDS011;62269;47.594;17.638;2023-02-28T04:33:27;16.33;;;11.55;;
62673;SDS011;62269;47.594;17.638;2023-02-28T04:34:15;15.80;;;11.40;;
62673;SDS011;62269;47.594;17.638;2023-02-28T04:35:02;13.32;;;11.05;;
62673;SDS011;62269;47.594;17.638;2023-02-28T04:36:01;16.67;;;11.95;;
62673;SDS011;62269;47.594;17.638;2023-02-28T04:36:50;14.55;;;11.85;;
62673;SDS011;62269;47.594;17.638;2023-02-28T04:37:57;15.60;;;10.98;;
62673;SDS011;62269;47.594;17.638;2023-02-28T04:38:44;14.05;;;10.43;;
62673;SDS011;62269;47.594;17.638;2023-02-28T04:39:34;13.27;;;11.30;;
62673;SDS011;62269;47.594;17.638;2023-02-28T04:40:22;14.07;;;11.57;;
62673;SDS011;62269;47.594;17.638;2023-02-28T04:41:09;16.60;;;12.13;;
62673;SDS011;62269;47.594;17.638;2023-02-28T04:41:56;20.52;;;12.50;;
62673;SDS011;62269;47.594;17.638;2023-02-28T04:42:43;15.27;;;11.88;;
62673;SDS011;62269;47.594;17.638;2023-02-28T04:43:31;14.48;;;11.48;;
62673;SDS011;62269;47.594;17.638;2023-02-28T04:44:18;15.27;;;11.38;;
62673;SDS011;62269;47.594;17.638;2023-02-28T04:45:07;11.68;;;10.15;;
62673;SDS011;62269;47.594;17.638;2023-02-28T04:45:57;13.50;;;10.90;;
62673;SDS011;62269;47.594;17.638;2023-02-28T04:46:47;17.60;;;11.50;;
62673;SDS011;62269;47.594;17.638;2023-02-28T04:47:34;14.75;;;11.30;;
62673;SDS011;62269;47.594;17.638;2023-02-28T04:48:22;14.55;;;11.40;;
62673;SDS011;62269;47.594;17.638;2023-02-28T04:49:10;14.87;;;12.00;;
62673;SDS011;62269;47.594;17.638;2023-02-28T04:49:58;16.00;;;11.93;;
62673;SDS011;62269;47.594;17.638;2023-02-28T04:50:45;16.85;;;11.95;;
62673;SDS011;62269;47.594;17.638;2023-02-28T04:51:32;14.98;;;11.23;;
62673;SDS011;62269;47.594;17.638;2023-02-28T04:52:19;15.18;;;11.57;;
62673;SDS011;62269;47.594;17.638;2023-02-28T04:53:06;14.27;;;10.93;;
62673;SDS011;62269;47.594;17.638;2023-02-28T04:53:54;14.18;;;11.20;;
62673;SDS011;62269;47.594;17.638;2023-02-28T04:54:41;16.70;;;11.75;;
62673;SDS011;62269;47.594;17.638;2023-02-28T04:55:28;14.85;;;11.18;;
62673;SDS011;62269;47.594;17.638;2023-02-28T04:56:16;14.85;;;11.15;;
62673;SDS011;62269;47.594;17.638;2023-02-28T04:57:04;15.70;;;11.40;;
62673;SDS011;62269;47.594;17.638;2023-02-28T04:57:52;15.15;;;11.68;;
62673;SDS011;62269;47.594;17.638;2023-02-28T04:58:39;14.15;;;11.38;;
62673;SDS011;62269;47.594;17.638;2023-02-28T04:59:26;16.15;;;12.37;;
62673;SDS011;62269;47.594;17.638;2023-02-28T05:00:13;15.07;;;11.68;;
62673;SDS011;62269;47.594;17.638;2023-02-28T05:01:04;14.02;;;10.90;;
62673;SDS011;62269;47.594;17.638;2023-02-28T05:01:59;14.02;;;11.05;;
62673;SDS011;62269;47.594;17.638;2023-02-28T05:02:46;13.73;;;10.80;;
62673;SDS011;62269;47.594;17.638;2023-02-28T05:03:33;15.75;;;11.52;;
62673;SDS011;62269;47.594;17.638;2023-02-28T05:04:20;15.93;;;11.35;;
62673;SDS011;62269;47.594;17.638;2023-02-28T05:05:07;15.23;;;11.30;;
62673;SDS011;62269;47.594;17.638;2023-02-28T05:05:55;13.48;;;10.95;;
62673;SDS011;62269;47.594;17.638;2023-02-28T05:06:42;15.05;;;11.48;;
62673;SDS011;62269;47.594;17.638;2023-02-28T05:07:29;14.75;;;11.23;;
62673;SDS011;62269;47.594;17.638;2023-02-28T05:08:16;13.48;;;10.85;;
62673;SDS011;62269;47.594;17.638;2023-02-28T05:09:03;13.57;;;10.77;;
62673;SDS011;62269;47.594;17.638;2023-02-28T05:09:50;13.52;;;10.43;;
62673;SDS011;62269;47.594;17.638;2023-02-28T05:10:37;15.98;;;11.65;;
62673;SDS011;62269;47.594;17.638;2023-02-28T05:11:29;14.07;;;10.82;;
62673;SDS011;62269;47.594;17.638;2023-02-28T05:12:21;12.95;;;10.60;;
62673;SDS011;62269;47.594;17.638;2023-02-28T05:13:11;15.30;;;11.32;;
62673;SDS011;62269;47.594;17.638;2023-02-28T05:13:58;13.90;;;10.63;;
62673;SDS011;62269;47.594;17.638;2023-02-28T05:14:46;14.43;;;11.43;;
62673;SDS011;62269;47.594;17.638;2023-02-28T05:15:33;13.15;;;10.95;;
62673;SDS011;62269;47.594;17.638;2023-02-28T05:16:21;14.98;;;12.15;;
62673;SDS011;62269;47.594;17.638;2023-02-28T05:17:08;15.63;;;11.15;;
62673;SDS011;62269;47.594;17.638;2023-02-28T05:17:55;15.95;;;11.30;;
62673;SDS011;62269;47.594;17.638;2023-02-28T05:18:42;15.32;;;10.70;;
62673;SDS011;62269;47.594;17.638;2023-02-28T05:19:30;14.60;;;10.55;;
62673;SDS011;62269;47.594;17.638;2023-02-28T05:20:17;13.40;;;10.55;;
62673;SDS011;62269;47.594;17.638;2023-02-28T05:21:04;13.80;;;11.60;;
62673;SDS011;62269;47.594;17.638;2023-02-28T05:21:53;13.68;;;10.77;;
62673;SDS011;62269;47.594;17.638;2023-02-28T05:22:41;15.52;;;10.65;;
62673;SDS011;62269;47.594;17.638;2023-02-28T05:23:28;13.68;;;10.30;;
62673;SDS011;62269;47.594;17.638;2023-02-28T05:24:15;12.27;;;10.43;;
62673;SDS011;62269;47.594;17.638;2023-02-28T05:25:13;13.07;;;10.35;;
62673;SDS011;62269;47.594;17.638;2023-02-28T05:26:03;12.90;;;10.88;;
62673;SDS011;62269;47.594;17.638;2023-02-28T05:26:51;14.35;;;10.88;;
62673;SDS011;62269;47.594;17.638;2023-02-28T05:27:39;15.68;;;11.12;;
62673;SDS011;62269;47.594;17.638;2023-02-28T05:28:27;14.23;;;10.38;;